Time;durP1;ratioP1;P1;durP2;ratioP2;P2;SDS_P1;SDS_P2;PMS_P1;PMS_P2;Temp;Humidity;BMP_temperature;BMP_pressure;BME280_temperature;BME280_humidity;BME280_pressure;Samples;Min_cycle;Max_cycle;Signal;HPM_P1;HPM_P2
2021/06/05 00:01:25;;;;;;;3.88;3.53;;;;;;;;;;5095393;28;20024;-71
2021/06/05 00:03:51;;;;;;;3.78;3.47;;;;;;;;;;5094696;28;20063;-72
2021/06/05 00:06:18;;;;;;;3.33;3.13;;;;;;;;;;5095191;28;20024;-72
2021/06/05 00:08:45;;;;;;;4.75;3.40;;;;;;;;;;5095362;28;20474;-72
2021/06/05 00:11:10;;;;;;;2.78;2.58;;;;;;;;;;5077250;28;20035;-72
2021/06/05 00:13:39;;;;;;;2.70;2.50;;;;;;;;;;5095202;28;20358;-72
2021/06/05 00:16:07;;;;;;;4.10;2.67;;;;;;;;;;5095150;28;20103;-72
2021/06/05 00:18:32;;;;;;;3.25;3.00;;;;;;;;;;5095172;28;20024;-75
2021/06/05 00:20:58;;;;;;;3.17;2.55;;;;;;;;;;5095008;28;20020;-75
2021/06/05 00:23:24;;;;;;;2.72;2.53;;;;;;;;;;5077040;28;20119;-75
2021/06/05 00:25:51;;;;;;;6.68;3.10;;;;;;;;;;5095165;28;20012;-75
2021/06/05 00:28:18;;;;;;;3.13;2.80;;;;;;;;;;5095508;28;20031;-75
2021/06/05 00:30:44;;;;;;;4.20;2.70;;;;;;;;;;5095049;28;20024;-75
2021/06/05 00:33:10;;;;;;;3.78;2.90;;;;;;;;;;5076989;28;20032;-75
2021/06/05 00:35:36;;;;;;;3.58;3.28;;;;;;;;;;5094783;28;20008;-75
2021/06/05 00:38:04;;;;;;;2.85;2.65;;;;;;;;;;5076814;28;20086;-75
2021/06/05 00:40:38;;;;;;;3.03;2.83;;;;;;;;;;5094713;28;20027;-75
2021/06/05 00:43:04;;;;;;;3.05;2.78;;;;;;;;;;5075796;28;20067;-75
2021/06/05 00:45:32;;;;;;;2.88;2.75;;;;;;;;;;5094710;28;20059;-75
2021/06/05 00:47:59;;;;;;;2.95;2.75;;;;;;;;;;5076282;28;20187;-76
2021/06/05 00:50:26;;;;;;;3.03;2.67;;;;;;;;;;5076491;28;20111;-75
2021/06/05 00:52:51;;;;;;;3.25;2.95;;;;;;;;;;5110182;28;20024;-74
2021/06/05 00:55:20;;;;;;;3.05;2.85;;;;;;;;;;5076335;28;20024;-73
2021/06/05 00:57:47;;;;;;;2.72;2.42;;;;;;;;;;5076338;28;20020;-73
2021/06/05 01:00:22;;;;;;;4.38;2.63;;;;;;;;;;5076138;28;20020;-73
2021/06/05 01:02:48;;;;;;;3.10;2.75;;;;;;;;;;5076451;28;20028;-73
2021/06/05 01:05:14;;;;;;;2.95;2.75;;;;;;;;;;5076347;28;20027;-74
2021/06/05 01:07:40;;;;;;;3.22;2.85;;;;;;;;;;5076263;28;20035;-74
2021/06/05 01:10:09;;;;;;;3.13;2.90;;;;;;;;;;5094232;28;20122;-74
2021/06/05 01:12:46;;;;;;;2.90;2.60;;;;;;;;;;5094477;28;20031;-75
2021/06/05 01:15:15;;;;;;;3.45;2.75;;;;;;;;;;5075600;28;20117;-75
2021/06/05 01:18:02;;;;;;;3.30;3.00;;;;;;;;;;5093590;28;20016;-74
2021/06/05 01:20:30;;;;;;;2.30;2.20;;;;;;;;;;5075963;28;20035;-75
2021/06/05 01:23:02;;;;;;;2.70;2.50;;;;;;;;;;5076189;28;20020;-75
2021/06/05 01:25:28;;;;;;;3.10;2.60;;;;;;;;;;5076030;28;20036;-74
2021/06/05 01:28:07;;;;;;;2.95;2.75;;;;;;;;;;5094041;28;20028;-74
2021/06/05 01:30:35;;;;;;;2.60;2.40;;;;;;;;;;5094235;28;20497;-76
2021/06/05 01:33:02;;;;;;;2.95;2.63;;;;;;;;;;5094058;28;20050;-76
2021/06/05 01:35:30;;;;;;;2.95;2.28;;;;;;;;;;5075548;28;20035;-75
2021/06/05 01:38:03;;;;;;;2.25;1.92;;;;;;;;;;5075677;28;20090;-75
2021/06/05 01:40:31;;;;;;;2.33;2.22;;;;;;;;;;5075745;28;20645;-76
2021/06/05 01:42:58;;;;;;;2.88;2.67;;;;;;;;;;5075418;28;20016;-75
2021/06/05 01:45:27;;;;;;;;;;;;;;;;;;5076248;28;20028;-74
2021/06/05 01:47:54;;;;;;;3.38;2.50;;;;;;;;;;5075348;28;19904;-74
2021/06/05 01:50:28;;;;;;;2.45;2.25;;;;;;;;;;5093441;28;20031;-74
2021/06/05 01:52:56;;;;;;;2.67;2.28;;;;;;;;;;5059054;28;20474;-74
2021/06/05 01:55:29;;;;;;;2.58;2.47;;;;;;;;;;5075701;28;20486;-74
2021/06/05 01:58:01;;;;;;;2.90;2.30;;;;;;;;;;5075517;28;20086;-74
2021/06/05 02:00:48;;;;;;;2.65;2.40;;;;;;;;;;5075925;28;20052;-74
2021/06/05 02:03:16;;;;;;;2.17;2.08;;;;;;;;;;5075520;28;20028;-76
2021/06/05 02:05:48;;;;;;;2.55;2.40;;;;;;;;;;5075507;28;20480;-76
2021/06/05 02:08:20;;;;;;;2.63;2.50;;;;;;;;;;5093490;28;20359;-74
2021/06/05 02:10:47;;;;;;;3.37;2.70;;;;;;;;;;5075802;28;20055;-74
2021/06/05 02:13:19;;;;;;;2.58;2.30;;;;;;;;;;5075164;28;20016;-74
2021/06/05 02:16:16;;;;;;;2.30;2.20;;;;;;;;;;5075331;28;20058;-74
2021/06/05 02:18:42;;;;;;;;;;;;;;;;;;5075667;28;20122;-75
2021/06/05 02:21:13;;;;;;;2.45;2.00;;;;;;;;;;5075238;28;19908;-75
2021/06/05 02:23:48;;;;;;;2.05;1.95;;;;;;;;;;5075180;28;20036;-75
2021/06/05 02:26:15;;;;;;;2.17;2.08;;;;;;;;;;5093268;28;20509;-75
2021/06/05 02:28:44;;;;;;;2.33;2.22;;;;;;;;;;5096574;28;20023;-74
2021/06/05 02:31:10;;;;;;;2.80;2.55;;;;;;;;;;5078641;28;20040;-74
2021/06/05 02:33:36;;;;;;;3.75;2.53;;;;;;;;;;5097708;28;20453;-74
2021/06/05 02:36:05;;;;;;;5.32;2.70;;;;;;;;;;5078943;28;20032;-74
2021/06/05 02:38:36;;;;;;;2.47;2.35;;;;;;;;;;5096933;28;20027;-74
2021/06/05 02:41:07;;;;;;;2.05;1.95;;;;;;;;;;5096915;28;20094;-73
2021/06/05 02:43:35;;;;;;;2.58;2.38;;;;;;;;;;5096879;28;20048;-73
2021/06/05 02:46:06;;;;;;;2.42;2.33;;;;;;;;;;5079055;28;20118;-74
2021/06/05 02:48:41;;;;;;;3.95;2.33;;;;;;;;;;5078878;28;20024;-74
2021/06/05 02:51:08;;;;;;;2.30;2.10;;;;;;;;;;5078976;28;20120;-73
2021/06/05 02:53:35;;;;;;;3.75;2.13;;;;;;;;;;5096778;28;20016;-72
2021/06/05 02:56:00;;;;;;;2.00;1.90;;;;;;;;;;5078714;28;20086;-72
2021/06/05 02:58:26;;;;;;;2.35;2.15;;;;;;;;;;5078456;28;20016;-72
2021/06/05 03:00:55;;;;;;;2.15;2.05;;;;;;;;;;5096759;28;20361;-72
2021/06/05 03:03:22;;;;;;;4.20;2.70;;;;;;;;;;5078450;28;20363;-72
2021/06/05 03:05:49;;;;;;;2.25;2.15;;;;;;;;;;5078472;28;20020;-72
2021/06/05 03:08:20;;;;;;;2.63;2.42;;;;;;;;;;5096561;28;20103;-72
2021/06/05 03:10:47;;;;;;;2.70;2.33;;;;;;;;;;5078178;28;20496;-71
2021/06/05 03:13:13;;;;;;;2.00;1.90;;;;;;;;;;5078439;28;20024;-72
2021/06/05 03:15:42;;;;;;;3.20;2.53;;;;;;;;;;5078061;28;20064;-71
2021/06/05 03:18:09;;;;;;;2.85;2.00;;;;;;;;;;5077836;28;20047;-71
2021/06/05 03:20:38;;;;;;;2.55;2.35;;;;;;;;;;5061538;28;20082;-72
2021/06/05 03:23:04;;;;;;;2.00;1.90;;;;;;;;;;5078066;28;20638;-72
2021/06/05 03:25:31;;;;;;;2.20;2.10;;;;;;;;;;5096517;28;20025;-72
2021/06/05 03:27:58;;;;;;;2.40;2.17;;;;;;;;;;5078083;28;20173;-72
2021/06/05 03:30:25;;;;;;;2.63;1.98;;;;;;;;;;5077898;28;20028;-72
2021/06/05 03:32:51;;;;;;;1.70;1.60;;;;;;;;;;5060986;28;20020;-73
2021/06/05 03:35:17;;;;;;;2.40;2.17;;;;;;;;;;5095450;28;20027;-72
2021/06/05 03:37:42;;;;;;;2.08;1.92;;;;;;;;;;5077171;28;20012;-72
2021/06/05 03:40:10;;;;;;;1.95;1.85;;;;;;;;;;5060170;28;20362;-72
2021/06/05 03:42:35;;;;;;;2.00;1.85;;;;;;;;;;5077546;28;20008;-72
2021/06/05 03:45:03;;;;;;;1.90;1.80;;;;;;;;;;5094400;28;20044;-72
2021/06/05 03:47:28;;;;;;;2.03;1.92;;;;;;;;;;5095697;28;20450;-72
2021/06/05 03:49:57;;;;;;;1.77;1.55;;;;;;;;;;5077711;28;20086;-72
2021/06/05 03:52:23;;;;;;;2.08;1.90;;;;;;;;;;5077865;28;20024;-72
2021/06/05 03:54:53;;;;;;;2.15;2.05;;;;;;;;;;5077403;28;20035;-72
2021/06/05 03:57:19;;;;;;;2.20;2.00;;;;;;;;;;5095769;28;20425;-72
2021/06/05 03:59:45;;;;;;;2.17;2.00;;;;;;;;;;5095625;28;20025;-72
2021/06/05 04:02:10;;;;;;;3.15;2.00;;;;;;;;;;5095395;28;20019;-72
2021/06/05 04:04:36;;;;;;;2.05;1.90;;;;;;;;;;5095000;28;20031;-72
2021/06/05 04:07:08;;;;;;;2.38;2.28;;;;;;;;;;5095366;28;20032;-72
2021/06/05 04:09:34;;;;;;;2.13;2.03;;;;;;;;;;5095327;28;20032;-72
2021/06/05 04:11:59;;;;;;;2.28;2.17;;;;;;;;;;5095160;28;20032;-70
2021/06/05 04:14:25;;;;;;;2.60;2.40;;;;;;;;;;5094953;28;20474;-70
2021/06/05 04:16:51;;;;;;;3.30;2.38;;;;;;;;;;5095138;28;20023;-71
2021/06/05 04:19:16;;;;;;;3.20;2.22;;;;;;;;;;5095074;28;20024;-71
2021/06/05 04:21:43;;;;;;;2.50;2.30;;;;;;;;;;5077234;28;20020;-71
2021/06/05 04:24:08;;;;;;;2.80;2.60;;;;;;;;;;5076765;28;20532;-71
2021/06/05 04:26:34;;;;;;;2.92;2.70;;;;;;;;;;5094883;28;20028;-71
2021/06/05 04:28:59;;;;;;;4.15;2.58;;;;;;;;;;5095028;28;20028;-71
2021/06/05 04:31:26;;;;;;;2.65;2.55;;;;;;;;;;5095236;28;20020;-71
2021/06/05 04:33:51;;;;;;;2.70;2.50;;;;;;;;;;5094946;28;20485;-72
2021/06/05 04:36:17;;;;;;;2.90;2.20;;;;;;;;;;5094885;28;20020;-71
2021/06/05 04:38:43;;;;;;;2.80;2.60;;;;;;;;;;5094526;28;20531;-71
2021/06/05 04:41:09;;;;;;;2.58;2.28;;;;;;;;;;5094616;28;20070;-71
2021/06/05 04:43:35;;;;;;;2.30;2.20;;;;;;;;;;5094092;28;20085;-71
2021/06/05 04:46:01;;;;;;;3.15;2.53;;;;;;;;;;5094593;28;20418;-72
2021/06/05 04:48:27;;;;;;;4.25;2.78;;;;;;;;;;5094831;28;20028;-72
2021/06/05 04:50:53;;;;;;;3.88;2.65;;;;;;;;;;5094195;28;20081;-71
2021/06/05 04:53:25;;;;;;;2.80;2.60;;;;;;;;;;5094676;28;20039;-71
2021/06/05 04:55:51;;;;;;;2.93;2.73;;;;;;;;;;5094240;28;20027;-71
2021/06/05 04:58:17;;;;;;;3.17;2.95;;;;;;;;;;5094285;28;20341;-72
2021/06/05 05:00:44;;;;;;;4.20;2.90;;;;;;;;;;5094349;28;20035;-71
2021/06/05 05:03:10;;;;;;;3.22;2.78;;;;;;;;;;5094244;28;20035;-72
2021/06/05 05:05:36;;;;;;;2.80;2.60;;;;;;;;;;5094302;28;20051;-71
2021/06/05 05:08:02;;;;;;;2.67;2.47;;;;;;;;;;5094277;28;20048;-71
2021/06/05 05:10:30;;;;;;;2.60;2.40;;;;;;;;;;5094126;28;20067;-71
2021/06/05 05:12:55;;;;;;;2.50;2.30;;;;;;;;;;5094020;28;20024;-71
2021/06/05 05:15:21;;;;;;;1.95;1.85;;;;;;;;;;5094254;28;20090;-71
2021/06/05 05:17:47;;;;;;;2.63;2.08;;;;;;;;;;5094098;28;20099;-71
2021/06/05 05:20:15;;;;;;;3.47;2.05;;;;;;;;;;5093994;28;20107;-71
2021/06/05 05:22:41;;;;;;;2.45;2.25;;;;;;;;;;5094020;28;20359;-71
2021/06/05 05:25:08;;;;;;;2.30;2.20;;;;;;;;;;5093841;28;20115;-71
2021/06/05 05:27:33;;;;;;;2.22;2.13;;;;;;;;;;5093748;28;20085;-71
2021/06/05 05:29:59;;;;;;;2.47;2.28;;;;;;;;;;5093632;28;20028;-71
2021/06/05 05:32:25;;;;;;;2.60;2.40;;;;;;;;;;5093818;28;20016;-74
2021/06/05 05:34:50;;;;;;;2.17;2.08;;;;;;;;;;5093529;28;20036;-74
2021/06/05 05:37:16;;;;;;;3.20;2.20;;;;;;;;;;5093198;28;20455;-75
2021/06/05 05:39:42;;;;;;;2.83;2.58;;;;;;;;;;5093862;28;20032;-75
2021/06/05 05:42:07;;;;;;;2.80;2.60;;;;;;;;;;5093892;28;20466;-75
2021/06/05 05:44:33;;;;;;;2.25;2.15;;;;;;;;;;5093214;28;20126;-75
2021/06/05 05:46:58;;;;;;;2.70;2.53;;;;;;;;;;5093453;28;20046;-75
2021/06/05 05:49:24;;;;;;;4.75;2.85;;;;;;;;;;5093711;28;20024;-74
2021/06/05 05:51:50;;;;;;;2.58;2.47;;;;;;;;;;5093258;28;20047;-74
2021/06/05 05:54:16;;;;;;;2.78;2.50;;;;;;;;;;5093343;28;20454;-74
2021/06/05 05:56:41;;;;;;;3.40;3.10;;;;;;;;;;5093601;28;20343;-74
2021/06/05 05:59:07;;;;;;;3.13;2.47;;;;;;;;;;5075850;28;20020;-74
2021/06/05 06:01:32;;;;;;;2.85;2.67;;;;;;;;;;5094513;28;20032;-75
2021/06/05 06:03:58;;;;;;;3.08;2.78;;;;;;;;;;5099971;28;20024;-75
2021/06/05 06:06:25;;;;;;;2.53;2.42;;;;;;;;;;5100189;28;20024;-74
2021/06/05 06:08:51;;;;;;;2.53;2.33;;;;;;;;;;5100072;28;20031;-74
2021/06/05 06:11:17;;;;;;;2.58;2.38;;;;;;;;;;5100195;28;20032;-74
2021/06/05 06:13:42;;;;;;;2.60;2.40;;;;;;;;;;5081970;28;20023;-74
2021/06/05 06:16:09;;;;;;;2.83;2.42;;;;;;;;;;5081222;28;20046;-74
2021/06/05 06:18:35;;;;;;;3.13;2.80;;;;;;;;;;5081534;28;20022;-74
2021/06/05 06:21:01;;;;;;;3.85;2.42;;;;;;;;;;5099386;28;20032;-75
2021/06/05 06:23:29;;;;;;;2.75;2.55;;;;;;;;;;5099720;28;20027;-74
2021/06/05 06:25:57;;;;;;;2.58;2.35;;;;;;;;;;5100077;28;20450;-74
2021/06/05 06:28:24;;;;;;;2.53;2.33;;;;;;;;;;5082013;28;20454;-74
2021/06/05 06:30:50;;;;;;;4.43;2.50;;;;;;;;;;5100225;28;20027;-74
2021/06/05 06:33:16;;;;;;;2.60;2.40;;;;;;;;;;5100044;28;20417;-74
2021/06/05 06:35:42;;;;;;;2.38;2.17;;;;;;;;;;5100198;28;20070;-74
2021/06/05 06:38:12;;;;;;;2.20;2.10;;;;;;;;;;5100009;28;20039;-74
2021/06/05 06:40:37;;;;;;;;;;;;;;;;;;5100353;28;20024;-74
2021/06/05 06:43:04;;;;;;;2.55;2.45;;;;;;;;;;5081314;28;19923;-74
2021/06/05 06:45:30;;;;;;;2.92;2.20;;;;;;;;;;5081233;28;20509;-74
2021/06/05 06:47:56;;;;;;;2.60;2.40;;;;;;;;;;5099636;28;20071;-74
2021/06/05 06:50:22;;;;;;;2.10;1.90;;;;;;;;;;5099732;28;20060;-75
2021/06/05 06:52:48;;;;;;;2.53;2.38;;;;;;;;;;5099467;28;20020;-74
2021/06/05 06:55:15;;;;;;;2.60;2.40;;;;;;;;;;5099433;28;20032;-75
2021/06/05 06:57:40;;;;;;;2.20;2.08;;;;;;;;;;5081368;28;20023;-74
2021/06/05 07:00:08;;;;;;;3.22;2.65;;;;;;;;;;5099807;28;20031;-75
2021/06/05 07:02:34;;;;;;;2.90;2.53;;;;;;;;;;5099867;28;20079;-74
2021/06/05 07:04:59;;;;;;;4.10;2.72;;;;;;;;;;5099801;28;20025;-74
2021/06/05 07:07:25;;;;;;;4.18;2.17;;;;;;;;;;5099698;28;20074;-75
2021/06/05 07:09:50;;;;;;;2.58;2.38;;;;;;;;;;5099522;28;20501;-74
2021/06/05 07:12:16;;;;;;;5.18;2.65;;;;;;;;;;5099629;28;20035;-74
2021/06/05 07:14:42;;;;;;;3.38;2.70;;;;;;;;;;5096795;28;20043;-75
2021/06/05 07:17:08;;;;;;;3.13;2.60;;;;;;;;;;5096250;28;20482;-74
2021/06/05 07:19:34;;;;;;;4.55;2.58;;;;;;;;;;5095716;28;20024;-75
2021/06/05 07:22:03;;;;;;;4.15;2.50;;;;;;;;;;5096355;28;20078;-75
2021/06/05 07:24:29;;;;;;;2.95;2.70;;;;;;;;;;5078209;28;20032;-75
2021/06/05 07:26:54;;;;;;;2.53;2.42;;;;;;;;;;5096269;28;20020;-75
2021/06/05 07:29:20;;;;;;;2.42;2.22;;;;;;;;;;5096505;28;20028;-74
2021/06/05 07:31:49;;;;;;;4.10;2.70;;;;;;;;;;5096170;28;20031;-74
2021/06/05 07:34:17;;;;;;;2.38;2.17;;;;;;;;;;5096121;28;20094;-74
2021/06/05 07:36:48;;;;;;;3.92;2.47;;;;;;;;;;5096355;28;20048;-75
2021/06/05 07:39:15;;;;;;;2.67;2.45;;;;;;;;;;5096111;28;20474;-75
2021/06/05 07:41:41;;;;;;;2.70;2.50;;;;;;;;;;5095790;28;20038;-74
2021/06/05 07:44:09;;;;;;;3.53;2.35;;;;;;;;;;5095422;28;20044;-75
2021/06/05 07:46:38;;;;;;;2.40;2.25;;;;;;;;;;5095717;28;20032;-74
2021/06/05 07:49:04;;;;;;;3.70;2.50;;;;;;;;;;5077812;28;20025;-75
2021/06/05 07:51:29;;;;;;;4.55;2.72;;;;;;;;;;5095824;28;20013;-74
2021/06/05 07:53:56;;;;;;;2.80;2.60;;;;;;;;;;5095512;28;20389;-74
2021/06/05 07:56:22;;;;;;;6.07;3.80;;;;;;;;;;5095743;28;20425;-74
2021/06/05 07:58:47;;;;;;;4.22;3.60;;;;;;;;;;5095499;28;20035;-74
2021/06/05 08:01:13;;;;;;;4.25;3.03;;;;;;;;;;5095546;28;20026;-74
2021/06/05 08:03:38;;;;;;;6.10;3.63;;;;;;;;;;5095367;28;20028;-74
2021/06/05 08:06:04;;;;;;;2.85;2.65;;;;;;;;;;5095663;28;20450;-74
2021/06/05 08:08:30;;;;;;;2.50;2.30;;;;;;;;;;5095567;28;20363;-75
2021/06/05 08:10:55;;;;;;;2.90;2.70;;;;;;;;;;5095094;28;20024;-74
2021/06/05 08:13:21;;;;;;;2.78;2.58;;;;;;;;;;5095340;28;20024;-74
2021/06/05 08:15:49;;;;;;;2.88;2.67;;;;;;;;;;5094922;28;20012;-75
2021/06/05 08:18:15;;;;;;;2.42;2.33;;;;;;;;;;5095251;28;20028;-74
2021/06/05 08:20:45;;;;;;;2.97;2.55;;;;;;;;;;5095248;28;20090;-74
2021/06/05 08:23:13;;;;;;;3.55;2.38;;;;;;;;;;5095036;28;20020;-74
2021/06/05 08:25:39;;;;;;;2.88;2.65;;;;;;;;;;5094718;28;20103;-75
2021/06/05 08:28:05;;;;;;;2.83;2.65;;;;;;;;;;5095087;28;20039;-74
2021/06/05 08:30:32;;;;;;;3.47;2.92;;;;;;;;;;5095076;28;20074;-74
2021/06/05 08:32:58;;;;;;;3.70;3.40;;;;;;;;;;5095091;28;20075;-74
2021/06/05 08:35:24;;;;;;;2.78;2.58;;;;;;;;;;5094792;28;20402;-74
2021/06/05 08:37:49;;;;;;;3.92;2.72;;;;;;;;;;5094829;28;20500;-75
2021/06/05 08:40:18;;;;;;;3.42;2.55;;;;;;;;;;5094640;28;20500;-74
2021/06/05 08:42:49;;;;;;;3.58;3.28;;;;;;;;;;5076295;28;20435;-72
2021/06/05 08:45:16;;;;;;;3.50;3.03;;;;;;;;;;5094549;28;20525;-70
2021/06/05 08:47:42;;;;;;;4.07;3.53;;;;;;;;;;5094338;28;20028;-71
2021/06/05 08:50:10;;;;;;;3.75;2.75;;;;;;;;;;5094826;28;20047;-70
2021/06/05 08:52:41;;;;;;;3.00;2.83;;;;;;;;;;5094797;28;20024;-71
2021/06/05 08:55:16;;;;;;;2.50;2.33;;;;;;;;;;5075400;28;20387;-70
2021/06/05 08:57:46;;;;;;;3.10;2.42;;;;;;;;;;5094133;28;20016;-71
2021/06/05 09:00:15;;;;;;;3.03;2.78;;;;;;;;;;5094504;28;20030;-71
2021/06/05 09:02:43;;;;;;;3.25;3.05;;;;;;;;;;5094524;28;20029;-70
2021/06/05 09:05:10;;;;;;;2.90;2.63;;;;;;;;;;5076270;28;20070;-70
2021/06/05 09:07:36;;;;;;;3.10;2.90;;;;;;;;;;5075734;28;20469;-70
2021/06/05 09:10:03;;;;;;;3.42;2.85;;;;;;;;;;5093902;28;20028;-71
2021/06/05 09:12:28;;;;;;;3.10;2.72;;;;;;;;;;5093940;28;20436;-71
2021/06/05 09:14:56;;;;;;;3.95;3.08;;;;;;;;;;5075973;28;20110;-71
2021/06/05 09:17:30;;;;;;;4.15;3.28;;;;;;;;;;5076117;28;20096;-71
2021/06/05 09:19:59;;;;;;;3.08;2.88;;;;;;;;;;5094158;28;20079;-71
2021/06/05 09:22:29;;;;;;;3.42;3.15;;;;;;;;;;5094007;28;20066;-71
2021/06/05 09:24:54;;;;;;;2.88;2.70;;;;;;;;;;5094070;28;20032;-71
2021/06/05 09:27:30;;;;;;;4.63;3.53;;;;;;;;;;5075821;28;20020;-71
2021/06/05 09:30:05;;;;;;;3.65;3.40;;;;;;;;;;5093903;28;20056;-71
2021/06/05 09:32:55;;;;;;;4.03;3.63;;;;;;;;;;5093912;28;20028;-71
2021/06/05 09:35:24;;;;;;;3.80;3.50;;;;;;;;;;5093840;28;20028;-71
2021/06/05 09:37:52;;;;;;;3.78;3.47;;;;;;;;;;5093140;28;20016;-71
2021/06/05 09:40:30;;;;;;;3.40;3.13;;;;;;;;;;5093671;28;20398;-71
2021/06/05 09:43:07;;;;;;;3.50;3.20;;;;;;;;;;5093295;28;20433;-71
2021/06/05 09:45:36;;;;;;;4.80;3.45;;;;;;;;;;5075988;28;20410;-70
2021/06/05 09:48:14;;;;;;;4.03;3.42;;;;;;;;;;5093207;28;20498;-71
2021/06/05 09:50:43;;;;;;;5.82;3.85;;;;;;;;;;5093512;28;20510;-71
2021/06/05 09:53:17;;;;;;;4.05;3.75;;;;;;;;;;5093392;28;20442;-70
2021/06/05 09:55:43;;;;;;;4.70;3.97;;;;;;;;;;5093450;28;20036;-71
2021/06/05 09:58:10;;;;;;;4.03;3.60;;;;;;;;;;5093273;28;20020;-70
2021/06/05 10:00:38;;;;;;;4.53;4.10;;;;;;;;;;5093672;28;20020;-71
2021/06/05 10:03:12;;;;;;;3.30;3.00;;;;;;;;;;5093714;28;20078;-71
2021/06/05 10:05:39;;;;;;;4.20;3.90;;;;;;;;;;5093355;28;20028;-71
2021/06/05 10:08:19;;;;;;;3.95;3.20;;;;;;;;;;5093419;28;20020;-71
2021/06/05 10:10:47;;;;;;;2.67;2.42;;;;;;;;;;5075427;28;20393;-75
2021/06/05 10:13:15;;;;;;;3.00;2.70;;;;;;;;;;5093405;28;20082;-75
2021/06/05 10:15:52;;;;;;;3.25;2.95;;;;;;;;;;5093073;28;20126;-75
2021/06/05 10:18:22;;;;;;;2.90;2.60;;;;;;;;;;5093444;28;20028;-75
2021/06/05 10:20:54;;;;;;;2.97;2.78;;;;;;;;;;5093547;28;20047;-75
2021/06/05 10:23:46;;;;;;;4.75;4.25;;;;;;;;;;5093169;28;20028;-75
2021/06/05 10:26:26;;;;;;;6.43;4.72;;;;;;;;;;5089322;28;20090;-75
2021/06/05 10:28:52;;;;;;;;;;;;;;;;;;5093815;28;20544;-74
2021/06/05 10:31:19;;;;;;;4.22;3.88;;;;;;;;;;5093342;28;19904;-74
2021/06/05 10:33:45;;;;;;;4.63;4.22;;;;;;;;;;5093210;28;20024;-74
2021/06/05 10:36:17;;;;;;;4.22;3.85;;;;;;;;;;5093392;28;20099;-75
2021/06/05 10:39:03;;;;;;;5.45;4.95;;;;;;;;;;5093236;28;20458;-75
2021/06/05 10:41:30;;;;;;;4.82;4.15;;;;;;;;;;5092439;28;20134;-74
2021/06/05 10:43:56;;;;;;;5.07;4.60;;;;;;;;;;5086432;28;20037;-75
2021/06/05 10:46:32;;;;;;;9.68;5.45;;;;;;;;;;5072796;28;20435;-75
2021/06/05 10:49:05;;;;;;;4.60;4.20;;;;;;;;;;5074715;28;20029;-74
2021/06/05 10:51:33;;;;;;;4.30;3.90;;;;;;;;;;5076663;28;20383;-74
2021/06/05 10:54:04;;;;;;;5.18;4.78;;;;;;;;;;5076510;28;20027;-75
2021/06/05 10:56:32;;;;;;;4.97;4.53;;;;;;;;;;5076671;28;20025;-75
2021/06/05 10:58:59;;;;;;;6.85;4.53;;;;;;;;;;5076474;28;20044;-75
2021/06/05 11:01:40;;;;;;;5.72;4.80;;;;;;;;;;5058992;28;20094;-74
2021/06/05 11:04:07;;;;;;;4.97;4.47;;;;;;;;;;5076474;28;20048;-74
2021/06/05 11:06:36;;;;;;;7.07;3.83;;;;;;;;;;5076445;28;20025;-75
2021/06/05 11:09:21;;;;;;;5.25;3.78;;;;;;;;;;5058444;28;20032;-75
2021/06/05 11:11:48;;;;;;;3.63;3.30;;;;;;;;;;5076497;28;20371;-75
2021/06/05 11:14:15;;;;;;;5.03;4.07;;;;;;;;;;5076013;28;20029;-75
2021/06/05 11:16:59;;;;;;;4.40;3.78;;;;;;;;;;5058016;28;20471;-75
2021/06/05 11:19:30;;;;;;;5.18;4.57;;;;;;;;;;5076298;28;20048;-75
2021/06/05 11:22:01;;;;;;;6.25;4.63;;;;;;;;;;5076343;28;20031;-75
2021/06/05 11:24:27;;;;;;;5.63;5.15;;;;;;;;;;5076070;28;20111;-75
2021/06/05 11:26:54;;;;;;;6.50;4.53;;;;;;;;;;5076087;28;20055;-75
2021/06/05 11:29:20;;;;;;;6.28;5.10;;;;;;;;;;5075875;28;20060;-75
2021/06/05 11:31:56;;;;;;;4.82;4.30;;;;;;;;;;5076085;28;20458;-74
2021/06/05 11:34:32;;;;;;;4.35;3.95;;;;;;;;;;5075948;28;20032;-74
2021/06/05 11:37:13;;;;;;;5.43;4.00;;;;;;;;;;5057426;28;20398;-75
2021/06/05 11:39:42;;;;;;;4.47;4.07;;;;;;;;;;5075805;28;20474;-75
2021/06/05 11:42:20;;;;;;;3.73;3.40;;;;;;;;;;5057112;28;20020;-74
2021/06/05 11:44:46;;;;;;;3.72;3.17;;;;;;;;;;5087787;28;20102;-74
2021/06/05 11:47:20;;;;;;;5.32;4.82;;;;;;;;;;5077793;28;20044;-75
2021/06/05 11:49:48;;;;;;;5.22;4.78;;;;;;;;;;5095814;28;20035;-74
2021/06/05 11:52:26;;;;;;;4.72;3.72;;;;;;;;;;5095248;28;20027;-74
2021/06/05 11:54:54;;;;;;;4.82;4.50;;;;;;;;;;5095490;28;20411;-75
2021/06/05 11:57:24;;;;;;;4.32;3.63;;;;;;;;;;5095638;28;20122;-74
2021/06/05 11:59:50;;;;;;;3.92;3.30;;;;;;;;;;5076790;28;20031;-74
2021/06/05 12:02:16;;;;;;;3.83;3.03;;;;;;;;;;5095497;28;20012;-74
2021/06/05 12:04:47;;;;;;;4.75;3.10;;;;;;;;;;5095783;28;20035;-74
2021/06/05 12:07:26;;;;;;;3.28;3.08;;;;;;;;;;5095706;28;20028;-74
2021/06/05 12:09:56;;;;;;;2.95;2.75;;;;;;;;;;5095873;28;20020;-75
2021/06/05 12:12:23;;;;;;;3.95;3.65;;;;;;;;;;5095579;28;20059;-75
2021/06/05 12:14:55;;;;;;;3.80;3.50;;;;;;;;;;5095052;28;20046;-75
2021/06/05 12:17:24;;;;;;;3.03;2.83;;;;;;;;;;5077383;28;20071;-75
2021/06/05 12:19:49;;;;;;;2.90;2.65;;;;;;;;;;5095250;28;20166;-75
2021/06/05 12:22:33;;;;;;;3.63;3.38;;;;;;;;;;5095074;28;20074;-75
2021/06/05 12:24:59;;;;;;;4.63;3.70;;;;;;;;;;5094483;28;20028;-75
2021/06/05 12:27:34;;;;;;;10.05;4.53;;;;;;;;;;5095063;28;20043;-74
2021/06/05 12:30:15;;;;;;;4.47;4.18;;;;;;;;;;5095057;28;20028;-75
2021/06/05 12:32:50;;;;;;;4.03;3.72;;;;;;;;;;5094235;28;20032;-74
2021/06/05 12:35:20;;;;;;;3.60;3.25;;;;;;;;;;5094917;28;20020;-75
2021/06/05 12:37:54;;;;;;;3.92;3.63;;;;;;;;;;5095179;28;20131;-74
2021/06/05 12:40:27;;;;;;;4.00;3.72;;;;;;;;;;5094890;28;20084;-74
2021/06/05 12:42:55;;;;;;;3.95;3.72;;;;;;;;;;5094702;28;20458;-74
2021/06/05 12:45:25;;;;;;;5.57;5.07;;;;;;;;;;5094710;28;20378;-74
2021/06/05 12:47:54;;;;;;;5.07;4.57;;;;;;;;;;5095225;28;20356;-74
2021/06/05 12:50:21;;;;;;;4.85;4.47;;;;;;;;;;5094424;28;20154;-74
2021/06/05 12:52:48;;;;;;;10.80;6.30;;;;;;;;;;5094490;28;20433;-74
2021/06/05 12:55:32;;;;;;;7.25;5.18;;;;;;;;;;5094315;28;20082;-74
2021/06/05 12:58:09;;;;;;;5.65;5.07;;;;;;;;;;5076281;28;20035;-74
2021/06/05 13:00:35;;;;;;;6.20;4.75;;;;;;;;;;5094868;28;20024;-74
2021/06/05 13:03:08;;;;;;;4.25;4.05;;;;;;;;;;5094430;28;20486;-75
2021/06/05 13:05:37;;;;;;;4.03;3.80;;;;;;;;;;5094549;28;20059;-74
2021/06/05 13:08:14;;;;;;;4.40;4.10;;;;;;;;;;5094793;28;20020;-74
2021/06/05 13:10:49;;;;;;;3.80;3.50;;;;;;;;;;5094302;28;20159;-74
2021/06/05 13:13:29;;;;;;;4.00;3.63;;;;;;;;;;5094256;28;20555;-74
2021/06/05 13:15:57;;;;;;;4.05;3.80;;;;;;;;;;5093929;28;20158;-74
2021/06/05 13:18:23;;;;;;;3.97;3.75;;;;;;;;;;5094187;28;20515;-74
2021/06/05 13:20:58;;;;;;;4.18;3.88;;;;;;;;;;5094200;28;20028;-74
2021/06/05 13:23:24;;;;;;;5.05;4.05;;;;;;;;;;5076297;28;20470;-74
2021/06/05 13:25:50;;;;;;;4.40;4.13;;;;;;;;;;5093618;28;20123;-74
2021/06/05 13:28:28;;;;;;;4.47;3.97;;;;;;;;;;5094027;28;20028;-74
2021/06/05 13:30:58;;;;;;;3.60;3.40;;;;;;;;;;5094181;28;20032;-74
2021/06/05 13:33:24;;;;;;;4.65;4.35;;;;;;;;;;5093760;28;20041;-74
2021/06/05 13:35:51;;;;;;;3.80;3.50;;;;;;;;;;5075720;28;20020;-75
2021/06/05 13:38:21;;;;;;;3.20;3.00;;;;;;;;;;5075890;28;20028;-75
2021/06/05 13:40:47;;;;;;;4.93;3.65;;;;;;;;;;5093940;28;20504;-75
2021/06/05 13:43:12;;;;;;;4.75;4.03;;;;;;;;;;5075668;28;20166;-75
2021/06/05 13:45:38;;;;;;;4.70;4.32;;;;;;;;;;5075646;28;20096;-74
2021/06/05 13:48:04;;;;;;;4.68;4.28;;;;;;;;;;5093993;28;20032;-74
2021/06/05 13:50:32;;;;;;;4.55;4.15;;;;;;;;;;5075463;28;20535;-74
2021/06/05 13:53:08;;;;;;;5.18;4.68;;;;;;;;;;5075551;28;20024;-74
2021/06/05 13:55:36;;;;;;;4.90;4.60;;;;;;;;;;5075342;28;20077;-71
2021/06/05 13:58:01;;;;;;;5.30;4.35;;;;;;;;;;5093500;28;20447;-75
2021/06/05 14:00:28;;;;;;;4.13;3.83;;;;;;;;;;5075371;28;20024;-75
2021/06/05 14:02:54;;;;;;;4.40;4.00;;;;;;;;;;5093625;28;20016;-75
2021/06/05 14:05:20;;;;;;;3.92;3.63;;;;;;;;;;5093723;28;20486;-76
2021/06/05 14:07:45;;;;;;;12.60;11.27;;;;;;;;;;5093339;28;20020;-76
2021/06/05 14:10:11;;;;;;;4.70;4.38;;;;;;;;;;5093719;28;20036;-75
2021/06/05 14:12:39;;;;;;;3.80;3.60;;;;;;;;;;5093194;28;20035;-75
2021/06/05 14:15:07;;;;;;;3.60;3.40;;;;;;;;;;5093329;28;20040;-75
2021/06/05 14:17:33;;;;;;;3.20;2.90;;;;;;;;;;5093581;28;20043;-75
2021/06/05 14:19:58;;;;;;;3.75;3.47;;;;;;;;;;5093340;28;20423;-75
2021/06/05 14:22:24;;;;;;;3.22;3.00;;;;;;;;;;5093047;28;20070;-75
2021/06/05 14:24:49;;;;;;;4.22;3.13;;;;;;;;;;5096881;28;20078;-75
2021/06/05 14:27:16;;;;;;;3.28;2.95;;;;;;;;;;5097155;28;20055;-75
2021/06/05 14:29:42;;;;;;;4.80;3.03;;;;;;;;;;5079273;28;20074;-75
2021/06/05 14:32:13;;;;;;;6.15;3.08;;;;;;;;;;5096857;28;20013;-76
2021/06/05 14:34:38;;;;;;;5.07;2.80;;;;;;;;;;5077030;28;20478;-75
2021/06/05 14:37:04;;;;;;;3.60;2.80;;;;;;;;;;5058851;28;20016;-75
2021/06/05 14:39:30;;;;;;;3.58;3.30;;;;;;;;;;5076751;28;20032;-75
2021/06/05 14:41:56;;;;;;;10.18;4.38;;;;;;;;;;5076813;28;20071;-75
2021/06/05 14:44:23;;;;;;;16.27;9.30;;;;;;;;;;5076298;28;20108;-72
2021/06/05 14:46:49;;;;;;;3.80;3.47;;;;;;;;;;5089083;28;20027;-72
2021/06/05 14:49:15;;;;;;;4.38;3.97;;;;;;;;;;5097086;28;20016;-73
2021/06/05 14:51:42;;;;;;;4.35;3.58;;;;;;;;;;5097189;28;20035;-72